sensor_id;sensor_type;location;lat;lon;timestamp;P1;durP1;ratioP1;P2;durP2;ratioP2
13605;SDS011;6874;52.084;5.090;2024-01-27T00:02:19;12.30;;;11.90;;
13605;SDS011;6874;52.084;5.090;2024-01-27T00:04:44;14.60;;;14.17;;
13605;SDS011;6874;52.084;5.090;2024-01-27T00:07:10;22.00;;;21.30;;
13605;SDS011;6874;52.084;5.090;2024-01-27T00:09:35;13.63;;;13.23;;
13605;SDS011;6874;52.084;5.090;2024-01-27T00:12:01;23.30;;;22.60;;
13605;SDS011;6874;52.084;5.090;2024-01-27T00:14:27;9.47;;;9.17;;
13605;SDS011;6874;52.084;5.090;2024-01-27T00:16:52;10.40;;;10.10;;
13605;SDS011;6874;52.084;5.090;2024-01-27T00:19:18;10.70;;;10.40;;
13605;SDS011;6874;52.084;5.090;2024-01-27T00:21:44;12.27;;;11.87;;
13605;SDS011;6874;52.084;5.090;2024-01-27T00:24:09;26.53;;;25.73;;
13605;SDS011;6874;52.084;5.090;2024-01-27T00:26:35;10.27;;;9.97;;
13605;SDS011;6874;52.084;5.090;2024-01-27T00:29:00;7.13;;;6.93;;
13605;SDS011;6874;52.084;5.090;2024-01-27T00:31:26;14.30;;;13.90;;
13605;SDS011;6874;52.084;5.090;2024-01-27T00:33:51;24.83;;;24.03;;
13605;SDS011;6874;52.084;5.090;2024-01-27T00:36:17;14.13;;;13.73;;
13605;SDS011;6874;52.084;5.090;2024-01-27T00:38:43;27.87;;;26.97;;
13605;SDS011;6874;52.084;5.090;2024-01-27T00:41:09;28.90;;;28.00;;
13605;SDS011;6874;52.084;5.090;2024-01-27T00:43:40;8.13;;;7.93;;
13605;SDS011;6874;52.084;5.090;2024-01-27T00:46:06;10.53;;;10.23;;
13605;SDS011;6874;52.084;5.090;2024-01-27T00:48:31;8.70;;;8.43;;
13605;SDS011;6874;52.084;5.090;2024-01-27T00:50:57;8.30;;;8.10;;
13605;SDS011;6874;52.084;5.090;2024-01-27T00:53:22;7.80;;;7.60;;
13605;SDS011;6874;52.084;5.090;2024-01-27T00:55:48;26.30;;;25.50;;
13605;SDS011;6874;52.084;5.090;2024-01-27T00:58:15;7.90;;;7.70;;
13605;SDS011;6874;52.084;5.090;2024-01-27T01:00:41;9.33;;;9.03;;
13605;SDS011;6874;52.084;5.090;2024-01-27T01:03:06;13.90;;;13.50;;
13605;SDS011;6874;52.084;5.090;2024-01-27T01:05:32;9.43;;;9.13;;
13605;SDS011;6874;52.084;5.090;2024-01-27T01:07:57;8.20;;;8.00;;
13605;SDS011;6874;52.084;5.090;2024-01-27T01:10:23;8.90;;;8.60;;
13605;SDS011;6874;52.084;5.090;2024-01-27T01:12:49;30.30;;;29.30;;
13605;SDS011;6874;52.084;5.090;2024-01-27T01:15:15;10.43;;;10.13;;
13605;SDS011;6874;52.084;5.090;2024-01-27T01:17:41;8.03;;;7.83;;
13605;SDS011;6874;52.084;5.090;2024-01-27T01:20:06;11.47;;;11.13;;
13605;SDS011;6874;52.084;5.090;2024-01-27T01:22:32;12.20;;;11.80;;
13605;SDS011;6874;52.084;5.090;2024-01-27T01:24:58;31.67;;;30.67;;
13605;SDS011;6874;52.084;5.090;2024-01-27T01:27:23;11.67;;;11.37;;
13605;SDS011;6874;52.084;5.090;2024-01-27T01:29:49;7.50;;;7.30;;
13605;SDS011;6874;52.084;5.090;2024-01-27T01:32:14;11.30;;;11.00;;
13605;SDS011;6874;52.084;5.090;2024-01-27T01:34:40;14.90;;;14.40;;
13605;SDS011;6874;52.084;5.090;2024-01-27T01:37:06;10.83;;;10.53;;
13605;SDS011;6874;52.084;5.090;2024-01-27T01:39:31;12.53;;;12.13;;
13605;SDS011;6874;52.084;5.090;2024-01-27T01:41:57;11.37;;;11.07;;
13605;SDS011;6874;52.084;5.090;2024-01-27T01:44:23;34.13;;;33.03;;
13605;SDS011;6874;52.084;5.090;2024-01-27T01:46:55;8.37;;;8.17;;
13605;SDS011;6874;52.084;5.090;2024-01-27T01:49:21;8.27;;;8.07;;
13605;SDS011;6874;52.084;5.090;2024-01-27T01:51:46;35.60;;;34.50;;
13605;SDS011;6874;52.084;5.090;2024-01-27T01:54:12;8.47;;;8.27;;
13605;SDS011;6874;52.084;5.090;2024-01-27T01:56:38;7.47;;;7.27;;
13605;SDS011;6874;52.084;5.090;2024-01-27T01:59:03;10.30;;;10.00;;
13605;SDS011;6874;52.084;5.090;2024-01-27T02:01:29;11.77;;;11.40;;
13605;SDS011;6874;52.084;5.090;2024-01-27T02:03:55;19.73;;;19.13;;
13605;SDS011;6874;52.084;5.090;2024-01-27T02:06:21;9.10;;;8.80;;
13605;SDS011;6874;52.084;5.090;2024-01-27T02:08:47;15.53;;;15.03;;
13605;SDS011;6874;52.084;5.090;2024-01-27T02:11:13;16.63;;;16.13;;
13605;SDS011;6874;52.084;5.090;2024-01-27T02:13:38;11.47;;;11.17;;
13605;SDS011;6874;52.084;5.090;2024-01-27T02:16:04;34.87;;;33.77;;
13605;SDS011;6874;52.084;5.090;2024-01-27T02:18:30;8.40;;;8.20;;
13605;SDS011;6874;52.084;5.090;2024-01-27T02:20:56;9.13;;;8.83;;
13605;SDS011;6874;52.084;5.090;2024-01-27T02:23:21;8.43;;;8.23;;
13605;SDS011;6874;52.084;5.090;2024-01-27T02:25:47;7.77;;;7.57;;
13605;SDS011;6874;52.084;5.090;2024-01-27T02:28:12;10.03;;;9.73;;
13605;SDS011;6874;52.084;5.090;2024-01-27T02:30:38;7.80;;;7.60;;
13605;SDS011;6874;52.084;5.090;2024-01-27T02:33:04;9.67;;;9.37;;
13605;SDS011;6874;52.084;5.090;2024-01-27T02:35:30;7.73;;;7.53;;
13605;SDS011;6874;52.084;5.090;2024-01-27T02:37:56;12.10;;;11.70;;
13605;SDS011;6874;52.084;5.090;2024-01-27T02:40:21;8.87;;;8.57;;
13605;SDS011;6874;52.084;5.090;2024-01-27T02:42:47;39.30;;;38.03;;
13605;SDS011;6874;52.084;5.090;2024-01-27T02:45:13;7.93;;;7.73;;
13605;SDS011;6874;52.084;5.090;2024-01-27T02:47:38;8.07;;;7.87;;
13605;SDS011;6874;52.084;5.090;2024-01-27T02:50:04;7.97;;;7.77;;
13605;SDS011;6874;52.084;5.090;2024-01-27T02:52:31;9.37;;;9.07;;
13605;SDS011;6874;52.084;5.090;2024-01-27T02:54:57;9.63;;;9.33;;
13605;SDS011;6874;52.084;5.090;2024-01-27T02:57:23;33.73;;;32.63;;
13605;SDS011;6874;52.084;5.090;2024-01-27T02:59:50;9.97;;;9.67;;
13605;SDS011;6874;52.084;5.090;2024-01-27T03:02:15;11.63;;;11.27;;
13605;SDS011;6874;52.084;5.090;2024-01-27T03:04:41;12.00;;;11.60;;
13605;SDS011;6874;52.084;5.090;2024-01-27T03:07:07;9.07;;;8.77;;
13605;SDS011;6874;52.084;5.090;2024-01-27T03:09:32;12.87;;;12.47;;
13605;SDS011;6874;52.084;5.090;2024-01-27T03:11:58;37.40;;;36.20;;
13605;SDS011;6874;52.084;5.090;2024-01-27T03:14:24;35.40;;;34.30;;
13605;SDS011;6874;52.084;5.090;2024-01-27T03:16:49;36.80;;;35.60;;
13605;SDS011;6874;52.084;5.090;2024-01-27T03:19:15;40.57;;;39.27;;
13605;SDS011;6874;52.084;5.090;2024-01-27T03:21:41;37.00;;;35.80;;
13605;SDS011;6874;52.084;5.090;2024-01-27T03:24:06;37.77;;;36.57;;
13605;SDS011;6874;52.084;5.090;2024-01-27T03:26:35;33.67;;;32.57;;
13605;SDS011;6874;52.084;5.090;2024-01-27T03:29:00;8.20;;;8.00;;
13605;SDS011;6874;52.084;5.090;2024-01-27T03:31:32;12.60;;;12.20;;
13605;SDS011;6874;52.084;5.090;2024-01-27T03:33:59;7.73;;;7.53;;
13605;SDS011;6874;52.084;5.090;2024-01-27T03:36:25;9.53;;;9.23;;
13605;SDS011;6874;52.084;5.090;2024-01-27T03:38:50;7.73;;;7.53;;
13605;SDS011;6874;52.084;5.090;2024-01-27T03:41:16;7.67;;;7.47;;
13605;SDS011;6874;52.084;5.090;2024-01-27T03:43:42;6.40;;;6.20;;
13605;SDS011;6874;52.084;5.090;2024-01-27T03:46:07;7.80;;;7.60;;
13605;SDS011;6874;52.084;5.090;2024-01-27T03:48:33;9.10;;;8.80;;
13605;SDS011;6874;52.084;5.090;2024-01-27T03:51:00;7.23;;;7.03;;
13605;SDS011;6874;52.084;5.090;2024-01-27T03:53:26;8.07;;;7.87;;
13605;SDS011;6874;52.084;5.090;2024-01-27T03:55:52;7.33;;;7.13;;
13605;SDS011;6874;52.084;5.090;2024-01-27T03:58:17;7.17;;;6.97;;
13605;SDS011;6874;52.084;5.090;2024-01-27T04:00:43;7.97;;;7.77;;
13605;SDS011;6874;52.084;5.090;2024-01-27T04:03:09;9.90;;;9.60;;
13605;SDS011;6874;52.084;5.090;2024-01-27T04:05:34;8.13;;;7.93;;
13605;SDS011;6874;52.084;5.090;2024-01-27T04:08:01;8.37;;;8.17;;
13605;SDS011;6874;52.084;5.090;2024-01-27T04:10:26;6.87;;;6.67;;
13605;SDS011;6874;52.084;5.090;2024-01-27T04:12:52;6.93;;;6.73;;
13605;SDS011;6874;52.084;5.090;2024-01-27T04:15:18;7.53;;;7.33;;
13605;SDS011;6874;52.084;5.090;2024-01-27T04:17:43;8.00;;;7.80;;
13605;SDS011;6874;52.084;5.090;2024-01-27T04:20:09;7.10;;;6.90;;
13605;SDS011;6874;52.084;5.090;2024-01-27T04:22:35;7.67;;;7.47;;
13605;SDS011;6874;52.084;5.090;2024-01-27T04:25:01;6.80;;;6.60;;
13605;SDS011;6874;52.084;5.090;2024-01-27T04:27:27;7.47;;;7.27;;
13605;SDS011;6874;52.084;5.090;2024-01-27T04:29:53;7.40;;;7.20;;
13605;SDS011;6874;52.084;5.090;2024-01-27T04:32:18;7.90;;;7.70;;
13605;SDS011;6874;52.084;5.090;2024-01-27T04:34:46;6.93;;;6.73;;
13605;SDS011;6874;52.084;5.090;2024-01-27T04:37:12;7.53;;;7.33;;
13605;SDS011;6874;52.084;5.090;2024-01-27T04:39:37;7.67;;;7.47;;
13605;SDS011;6874;52.084;5.090;2024-01-27T04:42:03;6.90;;;6.70;;
13605;SDS011;6874;52.084;5.090;2024-01-27T04:44:31;8.97;;;8.67;;
13605;SDS011;6874;52.084;5.090;2024-01-27T04:46:56;6.70;;;6.50;;
13605;SDS011;6874;52.084;5.090;2024-01-27T04:49:22;6.50;;;6.30;;
13605;SDS011;6874;52.084;5.090;2024-01-27T04:51:47;6.93;;;6.73;;
13605;SDS011;6874;52.084;5.090;2024-01-27T04:54:13;9.20;;;8.90;;
13605;SDS011;6874;52.084;5.090;2024-01-27T04:56:39;7.30;;;7.10;;
13605;SDS011;6874;52.084;5.090;2024-01-27T04:59:04;7.77;;;7.57;;
13605;SDS011;6874;52.084;5.090;2024-01-27T05:01:30;8.80;;;8.50;;
13605;SDS011;6874;52.084;5.090;2024-01-27T05:03:56;7.40;;;7.20;;
13605;SDS011;6874;52.084;5.090;2024-01-27T05:06:22;6.67;;;6.47;;
13605;SDS011;6874;52.084;5.090;2024-01-27T05:08:47;8.13;;;7.93;;
13605;SDS011;6874;52.084;5.090;2024-01-27T05:11:13;7.90;;;7.70;;
13605;SDS011;6874;52.084;5.090;2024-01-27T05:13:39;7.40;;;7.20;;
13605;SDS011;6874;52.084;5.090;2024-01-27T05:16:05;8.17;;;7.97;;
13605;SDS011;6874;52.084;5.090;2024-01-27T05:18:31;8.83;;;8.53;;
13605;SDS011;6874;52.084;5.090;2024-01-27T05:20:56;8.20;;;8.00;;
13605;SDS011;6874;52.084;5.090;2024-01-27T05:23:22;7.90;;;7.70;;
13605;SDS011;6874;52.084;5.090;2024-01-27T05:25:48;7.03;;;6.83;;
13605;SDS011;6874;52.084;5.090;2024-01-27T05:28:14;7.33;;;7.13;;
13605;SDS011;6874;52.084;5.090;2024-01-27T05:30:39;7.17;;;6.97;;
13605;SDS011;6874;52.084;5.090;2024-01-27T05:33:05;7.37;;;7.17;;
13605;SDS011;6874;52.084;5.090;2024-01-27T05:35:30;7.40;;;7.20;;
13605;SDS011;6874;52.084;5.090;2024-01-27T05:37:56;6.20;;;6.00;;
13605;SDS011;6874;52.084;5.090;2024-01-27T05:40:22;7.30;;;7.10;;
13605;SDS011;6874;52.084;5.090;2024-01-27T05:42:47;7.53;;;7.33;;
13605;SDS011;6874;52.084;5.090;2024-01-27T05:45:14;7.63;;;7.43;;
13605;SDS011;6874;52.084;5.090;2024-01-27T05:47:40;7.23;;;7.03;;
13605;SDS011;6874;52.084;5.090;2024-01-27T05:50:06;7.93;;;7.73;;
13605;SDS011;6874;52.084;5.090;2024-01-27T05:52:33;7.45;;;7.25;;
13605;SDS011;6874;52.084;5.090;2024-01-27T05:54:59;8.30;;;8.10;;
13605;SDS011;6874;52.084;5.090;2024-01-27T05:57:26;7.40;;;7.20;;
13605;SDS011;6874;52.084;5.090;2024-01-27T05:59:51;7.70;;;7.50;;
13605;SDS011;6874;52.084;5.090;2024-01-27T06:02:17;7.10;;;6.90;;
13605;SDS011;6874;52.084;5.090;2024-01-27T06:04:43;7.30;;;7.10;;
13605;SDS011;6874;52.084;5.090;2024-01-27T06:07:08;7.63;;;7.43;;
13605;SDS011;6874;52.084;5.090;2024-01-27T06:09:34;6.97;;;6.77;;
13605;SDS011;6874;52.084;5.090;2024-01-27T06:12:01;7.30;;;7.10;;
13605;SDS011;6874;52.084;5.090;2024-01-27T06:14:27;8.17;;;7.97;;
13605;SDS011;6874;52.084;5.090;2024-01-27T06:16:53;7.77;;;7.57;;
13605;SDS011;6874;52.084;5.090;2024-01-27T06:19:18;7.97;;;7.77;;
13605;SDS011;6874;52.084;5.090;2024-01-27T06:21:44;6.37;;;6.17;;
13605;SDS011;6874;52.084;5.090;2024-01-27T06:24:09;6.70;;;6.50;;
13605;SDS011;6874;52.084;5.090;2024-01-27T06:26:35;7.47;;;7.27;;
13605;SDS011;6874;52.084;5.090;2024-01-27T06:29:01;7.00;;;6.80;;
13605;SDS011;6874;52.084;5.090;2024-01-27T06:31:27;7.33;;;7.13;;
13605;SDS011;6874;52.084;5.090;2024-01-27T06:33:53;7.00;;;6.80;;
13605;SDS011;6874;52.084;5.090;2024-01-27T06:36:18;7.80;;;7.60;;
13605;SDS011;6874;52.084;5.090;2024-01-27T06:38:44;6.93;;;6.73;;
13605;SDS011;6874;52.084;5.090;2024-01-27T06:41:10;6.90;;;6.70;;
13605;SDS011;6874;52.084;5.090;2024-01-27T06:43:35;6.43;;;6.23;;
13605;SDS011;6874;52.084;5.090;2024-01-27T06:46:01;7.10;;;6.90;;
13605;SDS011;6874;52.084;5.090;2024-01-27T06:48:26;6.87;;;6.67;;
13605;SDS011;6874;52.084;5.090;2024-01-27T06:50:52;6.27;;;6.07;;
13605;SDS011;6874;52.084;5.090;2024-01-27T06:53:18;6.13;;;5.93;;
13605;SDS011;6874;52.084;5.090;2024-01-27T06:55:45;6.20;;;6.00;;
13605;SDS011;6874;52.084;5.090;2024-01-27T06:58:10;5.80;;;5.60;;
13605;SDS011;6874;52.084;5.090;2024-01-27T07:00:36;5.67;;;5.47;;
13605;SDS011;6874;52.084;5.090;2024-01-27T07:03:02;5.63;;;5.43;;
13605;SDS011;6874;52.084;5.090;2024-01-27T07:05:27;6.10;;;5.90;;
13605;SDS011;6874;52.084;5.090;2024-01-27T07:07:53;5.67;;;5.47;;
13605;SDS011;6874;52.084;5.090;2024-01-27T07:10:18;5.07;;;4.97;;
13605;SDS011;6874;52.084;5.090;2024-01-27T07:12:44;5.37;;;5.27;;
13605;SDS011;6874;52.084;5.090;2024-01-27T07:15:10;5.90;;;5.70;;
13605;SDS011;6874;52.084;5.090;2024-01-27T07:17:35;5.50;;;5.40;;
13605;SDS011;6874;52.084;5.090;2024-01-27T07:20:01;4.60;;;4.50;;
13605;SDS011;6874;52.084;5.090;2024-01-27T07:22:26;4.63;;;4.53;;
13605;SDS011;6874;52.084;5.090;2024-01-27T07:24:52;5.43;;;5.33;;
13605;SDS011;6874;52.084;5.090;2024-01-27T07:27:17;4.53;;;4.43;;
13605;SDS011;6874;52.084;5.090;2024-01-27T07:29:43;5.40;;;5.30;;
13605;SDS011;6874;52.084;5.090;2024-01-27T07:32:09;5.27;;;5.17;;
13605;SDS011;6874;52.084;5.090;2024-01-27T07:34:39;5.00;;;4.90;;
13605;SDS011;6874;52.084;5.090;2024-01-27T07:37:09;4.70;;;4.60;;
13605;SDS011;6874;52.084;5.090;2024-01-27T07:39:34;4.67;;;4.57;;
13605;SDS011;6874;52.084;5.090;2024-01-27T07:42:00;5.27;;;5.17;;
13605;SDS011;6874;52.084;5.090;2024-01-27T07:44:25;4.97;;;4.87;;
13605;SDS011;6874;52.084;5.090;2024-01-27T07:46:51;4.83;;;4.73;;
13605;SDS011;6874;52.084;5.090;2024-01-27T07:49:17;5.80;;;5.60;;
13605;SDS011;6874;52.084;5.090;2024-01-27T07:51:43;4.97;;;4.87;;
13605;SDS011;6874;52.084;5.090;2024-01-27T07:54:09;4.93;;;4.83;;
13605;SDS011;6874;52.084;5.090;2024-01-27T07:56:35;4.73;;;4.63;;
13605;SDS011;6874;52.084;5.090;2024-01-27T07:59:01;4.73;;;4.63;;
13605;SDS011;6874;52.084;5.090;2024-01-27T08:01:26;4.50;;;4.40;;
13605;SDS011;6874;52.084;5.090;2024-01-27T08:03:52;5.63;;;5.43;;
13605;SDS011;6874;52.084;5.090;2024-01-27T08:06:18;6.33;;;6.13;;
13605;SDS011;6874;52.084;5.090;2024-01-27T08:08:46;4.93;;;4.83;;
13605;SDS011;6874;52.084;5.090;2024-01-27T08:11:13;6.03;;;5.83;;
13605;SDS011;6874;52.084;5.090;2024-01-27T08:13:40;5.13;;;5.03;;
13605;SDS011;6874;52.084;5.090;2024-01-27T08:16:06;5.80;;;5.60;;
13605;SDS011;6874;52.084;5.090;2024-01-27T08:18:34;6.63;;;6.43;;
13605;SDS011;6874;52.084;5.090;2024-01-27T08:21:08;6.30;;;6.10;;
13605;SDS011;6874;52.084;5.090;2024-01-27T08:23:35;6.03;;;5.83;;
13605;SDS011;6874;52.084;5.090;2024-01-27T08:26:00;6.60;;;6.40;;
13605;SDS011;6874;52.084;5.090;2024-01-27T08:28:26;6.33;;;6.13;;
13605;SDS011;6874;52.084;5.090;2024-01-27T08:30:52;7.57;;;7.37;;
13605;SDS011;6874;52.084;5.090;2024-01-27T08:33:18;6.80;;;6.60;;
13605;SDS011;6874;52.084;5.090;2024-01-27T08:35:45;6.93;;;6.73;;
13605;SDS011;6874;52.084;5.090;2024-01-27T08:38:12;7.30;;;7.10;;
13605;SDS011;6874;52.084;5.090;2024-01-27T08:40:38;6.93;;;6.73;;
13605;SDS011;6874;52.084;5.090;2024-01-27T08:43:03;7.57;;;7.37;;
13605;SDS011;6874;52.084;5.090;2024-01-27T08:45:30;7.17;;;6.97;;
13605;SDS011;6874;52.084;5.090;2024-01-27T08:47:56;7.17;;;6.97;;
13605;SDS011;6874;52.084;5.090;2024-01-27T08:50:22;7.70;;;7.50;;
13605;SDS011;6874;52.084;5.090;2024-01-27T08:52:51;7.90;;;7.70;;
13605;SDS011;6874;52.084;5.090;2024-01-27T08:55:25;7.33;;;7.13;;
13605;SDS011;6874;52.084;5.090;2024-01-27T08:57:51;7.87;;;7.67;;
13605;SDS011;6874;52.084;5.090;2024-01-27T09:00:17;8.03;;;7.83;;
13605;SDS011;6874;52.084;5.090;2024-01-27T09:02:43;7.80;;;7.60;;
13605;SDS011;6874;52.084;5.090;2024-01-27T09:05:09;8.23;;;8.03;;
13605;SDS011;6874;52.084;5.090;2024-01-27T09:07:34;8.23;;;8.03;;
13605;SDS011;6874;52.084;5.090;2024-01-27T09:10:00;8.37;;;8.17;;
13605;SDS011;6874;52.084;5.090;2024-01-27T09:12:26;7.30;;;7.10;;
13605;SDS011;6874;52.084;5.090;2024-01-27T09:14:51;7.30;;;7.10;;
13605;SDS011;6874;52.084;5.090;2024-01-27T09:17:26;7.87;;;7.67;;
13605;SDS011;6874;52.084;5.090;2024-01-27T09:19:59;6.30;;;6.10;;
13605;SDS011;6874;52.084;5.090;2024-01-27T09:22:24;5.80;;;5.60;;
13605;SDS011;6874;52.084;5.090;2024-01-27T09:24:51;7.07;;;6.87;;
13605;SDS011;6874;52.084;5.090;2024-01-27T09:27:17;6.80;;;6.60;;
13605;SDS011;6874;52.084;5.090;2024-01-27T09:29:42;5.73;;;5.53;;
13605;SDS011;6874;52.084;5.090;2024-01-27T09:32:08;5.90;;;5.70;;
13605;SDS011;6874;52.084;5.090;2024-01-27T09:34:34;5.10;;;5.00;;
13605;SDS011;6874;52.084;5.090;2024-01-27T09:36:59;5.20;;;5.10;;
13605;SDS011;6874;52.084;5.090;2024-01-27T09:39:26;5.80;;;5.60;;
13605;SDS011;6874;52.084;5.090;2024-01-27T09:41:51;5.90;;;5.70;;
13605;SDS011;6874;52.084;5.090;2024-01-27T09:44:19;6.37;;;6.17;;
13605;SDS011;6874;52.084;5.090;2024-01-27T09:46:45;9.30;;;9.00;;
13605;SDS011;6874;52.084;5.090;2024-01-27T09:49:13;7.60;;;7.40;;
13605;SDS011;6874;52.084;5.090;2024-01-27T09:51:41;8.80;;;8.50;;
13605;SDS011;6874;52.084;5.090;2024-01-27T09:54:06;8.20;;;8.00;;
13605;SDS011;6874;52.084;5.090;2024-01-27T09:56:32;6.70;;;6.50;;
13605;SDS011;6874;52.084;5.090;2024-01-27T09:58:59;8.33;;;8.10;;
13605;SDS011;6874;52.084;5.090;2024-01-27T10:01:25;9.40;;;9.10;;
13605;SDS011;6874;52.084;5.090;2024-01-27T10:03:53;6.80;;;6.60;;
13605;SDS011;6874;52.084;5.090;2024-01-27T10:06:20;7.03;;;6.83;;
13605;SDS011;6874;52.084;5.090;2024-01-27T10:08:51;6.80;;;6.60;;
13605;SDS011;6874;52.084;5.090;2024-01-27T10:11:18;5.90;;;5.70;;
13605;SDS011;6874;52.084;5.090;2024-01-27T10:13:46;7.03;;;6.83;;
13605;SDS011;6874;52.084;5.090;2024-01-27T10:16:22;8.00;;;7.80;;
13605;SDS011;6874;52.084;5.090;2024-01-27T10:18:58;7.47;;;7.27;;
13605;SDS011;6874;52.084;5.090;2024-01-27T10:21:27;8.33;;;8.13;;
13605;SDS011;6874;52.084;5.090;2024-01-27T10:23:53;7.10;;;6.90;;
13605;SDS011;6874;52.084;5.090;2024-01-27T10:26:18;7.47;;;7.27;;
13605;SDS011;6874;52.084;5.090;2024-01-27T10:28:57;7.60;;;7.40;;
13605;SDS011;6874;52.084;5.090;2024-01-27T10:31:29;9.20;;;8.90;;
13605;SDS011;6874;52.084;5.090;2024-01-27T10:34:01;10.43;;;10.13;;
13605;SDS011;6874;52.084;5.090;2024-01-27T10:36:38;12.07;;;11.67;;
13605;SDS011;6874;52.084;5.090;2024-01-27T10:39:15;12.20;;;11.80;;
13605;SDS011;6874;52.084;5.090;2024-01-27T10:41:45;14.37;;;13.90;;
13605;SDS011;6874;52.084;5.090;2024-01-27T10:44:15;17.47;;;16.90;;
13605;SDS011;6874;52.084;5.090;2024-01-27T10:46:43;16.07;;;15.57;;
13605;SDS011;6874;52.084;5.090;2024-01-27T10:49:14;15.97;;;15.47;;
13605;SDS011;6874;52.084;5.090;2024-01-27T10:51:43;21.13;;;20.43;;
13605;SDS011;6874;52.084;5.090;2024-01-27T10:54:24;16.07;;;15.57;;
13605;SDS011;6874;52.084;5.090;2024-01-27T10:56:53;16.90;;;16.40;;
13605;SDS011;6874;52.084;5.090;2024-01-27T10:59:21;17.37;;;16.87;;
13605;SDS011;6874;52.084;5.090;2024-01-27T11:01:48;19.43;;;18.83;;
13605;SDS011;6874;52.084;5.090;2024-01-27T11:04:18;18.50;;;17.90;;
13605;SDS011;6874;52.084;5.090;2024-01-27T11:06:45;19.30;;;18.70;;
13605;SDS011;6874;52.084;5.090;2024-01-27T11:09:13;24.97;;;24.17;;
13605;SDS011;6874;52.084;5.090;2024-01-27T11:11:39;15.67;;;15.17;;
13605;SDS011;6874;52.084;5.090;2024-01-27T11:14:07;15.47;;;14.97;;
13605;SDS011;6874;52.084;5.090;2024-01-27T11:16:34;12.80;;;12.40;;
13605;SDS011;6874;52.084;5.090;2024-01-27T11:19:00;11.97;;;11.57;;
13605;SDS011;6874;52.084;5.090;2024-01-27T11:21:27;15.67;;;15.17;;
13605;SDS011;6874;52.084;5.090;2024-01-27T11:23:52;10.47;;;10.17;;
13605;SDS011;6874;52.084;5.090;2024-01-27T11:26:21;11.27;;;10.97;;
13605;SDS011;6874;52.084;5.090;2024-01-27T11:28:50;9.97;;;9.67;;
13605;SDS011;6874;52.084;5.090;2024-01-27T11:31:17;10.40;;;10.07;;
13605;SDS011;6874;52.084;5.090;2024-01-27T11:33:47;9.93;;;9.63;;
13605;SDS011;6874;52.084;5.090;2024-01-27T11:36:20;8.83;;;8.53;;
13605;SDS011;6874;52.084;5.090;2024-01-27T11:38:48;13.30;;;12.90;;
13605;SDS011;6874;52.084;5.090;2024-01-27T11:41:22;7.63;;;7.43;;
13605;SDS011;6874;52.084;5.090;2024-01-27T11:43:53;26.90;;;26.03;;
13605;SDS011;6874;52.084;5.090;2024-01-27T11:46:24;10.33;;;10.03;;
13605;SDS011;6874;52.084;5.090;2024-01-27T11:48:50;7.67;;;7.47;;
13605;SDS011;6874;52.084;5.090;2024-01-27T11:51:17;6.70;;;6.50;;
13605;SDS011;6874;52.084;5.090;2024-01-27T11:53:44;15.47;;;15.00;;
13605;SDS011;6874;52.084;5.090;2024-01-27T11:56:10;12.30;;;11.90;;
13605;SDS011;6874;52.084;5.090;2024-01-27T11:58:35;6.00;;;5.80;;
13605;SDS011;6874;52.084;5.090;2024-01-27T12:01:01;5.60;;;5.40;;
13605;SDS011;6874;52.084;5.090;2024-01-27T12:03:27;4.83;;;4.73;;
13605;SDS011;6874;52.084;5.090;2024-01-27T12:05:54;4.97;;;4.77;;
13605;SDS011;6874;52.084;5.090;2024-01-27T12:08:20;12.97;;;12.57;;
13605;SDS011;6874;52.084;5.090;2024-01-27T12:10:45;5.87;;;5.67;;
13605;SDS011;6874;52.084;5.090;2024-01-27T12:13:11;6.60;;;6.40;;
13605;SDS011;6874;52.084;5.090;2024-01-27T12:15:38;15.07;;;14.57;;
13605;SDS011;6874;52.084;5.090;2024-01-27T12:18:06;14.70;;;14.23;;
13605;SDS011;6874;52.084;5.090;2024-01-27T12:20:32;6.40;;;6.20;;
13605;SDS011;6874;52.084;5.090;2024-01-27T12:23:07;8.50;;;8.27;;
13605;SDS011;6874;52.084;5.090;2024-01-27T12:25:32;6.17;;;5.97;;
13605;SDS011;6874;52.084;5.090;2024-01-27T12:28:05;15.33;;;14.87;;
13605;SDS011;6874;52.084;5.090;2024-01-27T12:30:32;16.83;;;16.33;;
13605;SDS011;6874;52.084;5.090;2024-01-27T12:32:59;7.53;;;7.33;;
13605;SDS011;6874;52.084;5.090;2024-01-27T12:35:25;6.00;;;5.80;;
13605;SDS011;6874;52.084;5.090;2024-01-27T12:37:52;16.30;;;15.80;;
13605;SDS011;6874;52.084;5.090;2024-01-27T12:40:19;17.83;;;17.27;;
13605;SDS011;6874;52.084;5.090;2024-01-27T12:42:46;7.07;;;6.87;;
13605;SDS011;6874;52.084;5.090;2024-01-27T12:45:12;17.40;;;16.83;;
13605;SDS011;6874;52.084;5.090;2024-01-27T12:47:38;18.30;;;17.70;;
13605;SDS011;6874;52.084;5.090;2024-01-27T12:50:04;6.60;;;6.40;;
13605;SDS011;6874;52.084;5.090;2024-01-27T12:52:33;17.20;;;16.63;;
13605;SDS011;6874;52.084;5.090;2024-01-27T12:54:59;8.57;;;8.33;;
13605;SDS011;6874;52.084;5.090;2024-01-27T12:57:24;12.50;;;12.13;;
13605;SDS011;6874;52.084;5.090;2024-01-27T12:59:50;21.53;;;20.83;;
13605;SDS011;6874;52.084;5.090;2024-01-27T13:02:16;22.53;;;21.80;;
13605;SDS011;6874;52.084;5.090;2024-01-27T13:04:42;21.47;;;20.77;;
13605;SDS011;6874;52.084;5.090;2024-01-27T13:07:07;12.00;;;11.63;;
13605;SDS011;6874;52.084;5.090;2024-01-27T13:09:33;14.13;;;13.70;;
13605;SDS011;6874;52.084;5.090;2024-01-27T13:11:59;23.67;;;22.90;;
13605;SDS011;6874;52.084;5.090;2024-01-27T13:14:25;9.27;;;9.00;;
13605;SDS011;6874;52.084;5.090;2024-01-27T13:16:50;11.30;;;10.93;;
13605;SDS011;6874;52.084;5.090;2024-01-27T13:19:18;10.77;;;10.43;;
13605;SDS011;6874;52.084;5.090;2024-01-27T13:21:44;26.43;;;25.57;;
13605;SDS011;6874;52.084;5.090;2024-01-27T13:24:09;26.40;;;25.53;;
13605;SDS011;6874;52.084;5.090;2024-01-27T13:26:36;9.33;;;9.03;;
13605;SDS011;6874;52.084;5.090;2024-01-27T13:29:04;32.17;;;31.10;;
13605;SDS011;6874;52.084;5.090;2024-01-27T13:31:30;9.23;;;8.93;;
13605;SDS011;6874;52.084;5.090;2024-01-27T13:33:56;35.27;;;34.07;;
13605;SDS011;6874;52.084;5.090;2024-01-27T13:36:22;10.53;;;10.20;;
13605;SDS011;6874;52.084;5.090;2024-01-27T13:38:48;11.00;;;10.67;;
13605;SDS011;6874;52.084;5.090;2024-01-27T13:41:14;15.33;;;14.83;;
13605;SDS011;6874;52.084;5.090;2024-01-27T13:43:40;49.63;;;47.93;;
13605;SDS011;6874;52.084;5.090;2024-01-27T13:46:06;19.93;;;19.30;;
13605;SDS011;6874;52.084;5.090;2024-01-27T13:48:32;41.33;;;39.93;;
13605;SDS011;6874;52.084;5.090;2024-01-27T13:50:57;19.97;;;19.33;;
13605;SDS011;6874;52.084;5.090;2024-01-27T13:53:23;48.70;;;47.10;;
13605;SDS011;6874;52.084;5.090;2024-01-27T13:55:49;58.10;;;56.17;;
13605;SDS011;6874;52.084;5.090;2024-01-27T13:58:14;73.33;;;70.90;;
13605;SDS011;6874;52.084;5.090;2024-01-27T14:00:40;79.57;;;76.90;;
13605;SDS011;6874;52.084;5.090;2024-01-27T14:03:06;81.03;;;78.30;;
13605;SDS011;6874;52.084;5.090;2024-01-27T14:05:31;81.93;;;79.17;;
13605;SDS011;6874;52.084;5.090;2024-01-27T14:07:57;84.33;;;81.50;;
13605;SDS011;6874;52.084;5.090;2024-01-27T14:10:23;68.47;;;66.17;;
13605;SDS011;6874;52.084;5.090;2024-01-27T14:12:49;32.10;;;31.07;;
13605;SDS011;6874;52.084;5.090;2024-01-27T14:15:15;82.83;;;80.07;;
13605;SDS011;6874;52.084;5.090;2024-01-27T14:17:42;78.63;;;76.03;;
13605;SDS011;6874;52.084;5.090;2024-01-27T14:20:08;26.00;;;25.17;;
13605;SDS011;6874;52.084;5.090;2024-01-27T14:22:35;37.40;;;36.20;;
13605;SDS011;6874;52.084;5.090;2024-01-27T14:25:01;62.20;;;60.10;;
13605;SDS011;6874;52.084;5.090;2024-01-27T14:27:27;33.67;;;32.60;;
13605;SDS011;6874;52.084;5.090;2024-01-27T14:29:53;67.97;;;65.67;;
13605;SDS011;6874;52.084;5.090;2024-01-27T14:32:19;32.47;;;31.43;;
13605;SDS011;6874;52.084;5.090;2024-01-27T14:34:45;29.10;;;28.17;;
13605;SDS011;6874;52.084;5.090;2024-01-27T14:37:11;62.90;;;60.80;;
13605;SDS011;6874;52.084;5.090;2024-01-27T14:39:38;59.03;;;57.03;;
13605;SDS011;6874;52.084;5.090;2024-01-27T14:42:07;28.90;;;28.00;;
13605;SDS011;6874;52.084;5.090;2024-01-27T14:44:33;58.90;;;56.90;;
13605;SDS011;6874;52.084;5.090;2024-01-27T14:46:58;60.17;;;58.17;;